createdAt,value
2023-03-17T00:01:05.333Z,101291.44
2023-03-17T00:04:12.012Z,101272.09
2023-03-17T00:07:17.301Z,101290.94
2023-03-17T00:10:25.773Z,101279.53
2023-03-17T00:13:30.606Z,101287.78
2023-03-17T00:16:38.192Z,101284.66
2023-03-17T00:19:42.582Z,101282.31
2023-03-17T00:22:45.485Z,101289.06
2023-03-17T00:25:48.850Z,101280.34
2023-03-17T00:28:51.963Z,101277.06
2023-03-17T00:31:57.714Z,101264.94
2023-03-17T00:35:00.225Z,101274.16
2023-03-17T00:38:03.012Z,101262.84
2023-03-17T00:41:06.187Z,101265.63
2023-03-17T00:44:08.637Z,101260.75
2023-03-17T00:47:11.879Z,101271.41
2023-03-17T00:50:18.033Z,101258.84
2023-03-17T00:53:21.668Z,101260.63
2023-03-17T00:56:24.269Z,101270.50
2023-03-17T00:59:30.634Z,101246.28
2023-03-17T01:02:33.630Z,101272.34
2023-03-17T01:05:36.542Z,101281.09
2023-03-17T01:08:40.822Z,101267.56
2023-03-17T01:11:44.368Z,101271.31
2023-03-17T01:14:58.125Z,101260.13
2023-03-17T01:18:02.940Z,101270.94
2023-03-17T01:21:06.660Z,101275.13
2023-03-17T01:24:09.699Z,101254.41
2023-03-17T01:27:12.465Z,101277.06
2023-03-17T01:30:29.206Z,101244.09
2023-03-17T01:33:32.168Z,101277.16
2023-03-17T01:36:35.829Z,101259.09
2023-03-17T01:39:38.272Z,101259.31
2023-03-17T01:42:44.850Z,101284.09
2023-03-17T01:46:28.252Z,101279.09
2023-03-17T01:49:38.848Z,101263.28
2023-03-17T01:52:41.909Z,101249.66
2023-03-17T01:55:48.028Z,101248.06
2023-03-17T01:58:54.411Z,101263.13
2023-03-17T02:02:03.360Z,101262.31
2023-03-17T02:05:09.383Z,101257.47
2023-03-17T02:08:14.190Z,101266.28
2023-03-17T02:11:17.067Z,101283.81
2023-03-17T02:14:20.718Z,101283.97
2023-03-17T02:17:26.093Z,101310.69
2023-03-17T02:20:29.144Z,101318.34
2023-03-17T02:23:31.913Z,101320.88
2023-03-17T02:26:35.698Z,101324.25
2023-03-17T02:29:38.408Z,101314.19
2023-03-17T02:32:41.085Z,101323.88
2023-03-17T02:35:43.630Z,101318.38
2023-03-17T02:38:46.763Z,101318.47
2023-03-17T02:41:49.356Z,101317.25
2023-03-17T02:44:51.946Z,101293.28
2023-03-17T02:47:56.132Z,101299.72
2023-03-17T02:50:58.670Z,101296.44
2023-03-17T02:54:01.148Z,101302.66
2023-03-17T02:57:03.936Z,101302.38
2023-03-17T03:00:08.210Z,101316.47
2023-03-17T03:03:10.655Z,101304.31
2023-03-17T03:06:13.582Z,101296.38
2023-03-17T03:09:17.847Z,101312.81
2023-03-17T03:12:20.293Z,101316.34
2023-03-17T03:15:23.453Z,101305.75
2023-03-17T03:18:26.200Z,101298.53
2023-03-17T03:21:29.144Z,101291.88
2023-03-17T03:24:32.358Z,101299.53
2023-03-17T03:27:35.177Z,101311.88
2023-03-17T03:30:38.336Z,101316.69
2023-03-17T03:33:41.897Z,101321.28
2023-03-17T03:36:44.467Z,101307.00
2023-03-17T03:39:47.835Z,101312.19
2023-03-17T03:42:50.615Z,101276.19
2023-03-17T03:45:54.587Z,101296.28
2023-03-17T03:48:57.403Z,101311.09
2023-03-17T03:52:00.906Z,101305.28
2023-03-17T03:55:03.745Z,101293.94
2023-03-17T03:58:06.868Z,101301.38
2023-03-17T04:01:10.228Z,101295.78
2023-03-17T04:04:12.860Z,101304.03
2023-03-17T04:07:15.918Z,101300.47
2023-03-17T04:10:18.704Z,101299.88
2023-03-17T04:13:21.196Z,101282.72
2023-03-17T04:16:23.652Z,101290.06
2023-03-17T04:19:26.473Z,101306.38
2023-03-17T04:22:29.060Z,101300.06
2023-03-17T04:25:32.543Z,101293.13
2023-03-17T04:28:35.024Z,101304.44
2023-03-17T04:31:39.735Z,101291.91
2023-03-17T04:34:43.139Z,101291.91
2023-03-17T04:37:45.967Z,101290.69
2023-03-17T04:40:50.570Z,101287.09
2023-03-17T04:43:53.063Z,101309.63
2023-03-17T04:46:55.584Z,101294.44
2023-03-17T04:49:58.032Z,101309.84
2023-03-17T04:53:01.546Z,101309.00
2023-03-17T04:56:04.165Z,101311.66
2023-03-17T04:59:07.089Z,101303.03
2023-03-17T05:02:10.005Z,101318.94
2023-03-17T05:05:12.979Z,101318.41
2023-03-17T05:08:16.028Z,101329.44
2023-03-17T05:11:18.796Z,101318.41
2023-03-17T05:14:21.438Z,101322.00
2023-03-17T05:17:24.107Z,101310.97
2023-03-17T05:20:27.620Z,101318.22
2023-03-17T05:23:30.607Z,101313.31
2023-03-17T05:26:33.185Z,101333.81
2023-03-17T05:29:35.595Z,101343.91
2023-03-17T05:32:38.010Z,101343.53
2023-03-17T05:35:41.798Z,101350.75
2023-03-17T05:38:44.911Z,101340.22
2023-03-17T05:41:48.101Z,101331.03
2023-03-17T05:44:50.611Z,101319.19
2023-03-17T05:47:53.074Z,101321.09
2023-03-17T05:50:55.682Z,101321.81
2023-03-17T05:53:58.445Z,101335.25
2023-03-17T05:57:01.104Z,101323.81
2023-03-17T06:00:05.171Z,101336.31
2023-03-17T06:03:07.883Z,101341.88
2023-03-17T06:06:10.617Z,101324.25
2023-03-17T06:09:13.111Z,101339.19
2023-03-17T06:12:16.318Z,101329.78
2023-03-17T06:15:21.175Z,101333.44
2023-03-17T06:18:23.906Z,101332.19
2023-03-17T06:21:27.259Z,101330.53
2023-03-17T06:24:29.820Z,101348.41
2023-03-17T06:27:32.551Z,101335.84
2023-03-17T06:30:38.181Z,101356.25
2023-03-17T06:33:42.674Z,101342.78
2023-03-17T06:36:45.935Z,101360.22
2023-03-17T06:39:50.150Z,101343.44
2023-03-17T06:42:53.422Z,101356.22
2023-03-17T06:45:56.105Z,101355.41
2023-03-17T06:48:59.300Z,101350.06
2023-03-17T06:52:01.976Z,101357.66
2023-03-17T06:55:06.348Z,101348.97
2023-03-17T06:58:10.698Z,101376.78
2023-03-17T07:01:14.641Z,101359.84
2023-03-17T07:04:17.345Z,101387.03
2023-03-17T07:07:22.158Z,101369.06
2023-03-17T07:10:25.581Z,101390.84
2023-03-17T07:13:28.738Z,101388.06
2023-03-17T07:16:33.361Z,101391.38
2023-03-17T07:19:36.418Z,101387.81
2023-03-17T07:22:39.055Z,101380.41
2023-03-17T07:25:43.810Z,101377.84
2023-03-17T07:28:46.919Z,101377.25
2023-03-17T07:31:50.941Z,101396.41
2023-03-17T07:34:55.024Z,101378.81
2023-03-17T07:37:57.685Z,101383.56
2023-03-17T07:41:00.878Z,101383.34
2023-03-17T07:44:04.136Z,101378.06
2023-03-17T07:47:07.446Z,101377.75
2023-03-17T07:50:11.095Z,101377.22
2023-03-17T07:53:14.054Z,101382.63
2023-03-17T07:56:18.020Z,101365.56
2023-03-17T07:59:21.314Z,101364.81
2023-03-17T08:02:25.338Z,101369.25
2023-03-17T08:05:28.157Z,101379.19
2023-03-17T08:08:30.645Z,101359.88
2023-03-17T08:11:33.379Z,101374.97
2023-03-17T08:14:36.376Z,101368.34
2023-03-17T08:17:41.003Z,101348.19
2023-03-17T08:20:43.496Z,101340.41
2023-03-17T08:23:47.059Z,101365.44
2023-03-17T08:26:49.986Z,101363.66
2023-03-17T08:29:52.572Z,101360.91
2023-03-17T08:32:55.460Z,101360.03
2023-03-17T08:35:58.159Z,101348.03
2023-03-17T08:39:01.135Z,101357.16
2023-03-17T08:42:04.520Z,101357.38
2023-03-17T08:45:07.991Z,101356.16
2023-03-17T08:48:10.990Z,101356.53
2023-03-17T08:51:18.562Z,101348.50
2023-03-17T08:54:21.979Z,101343.84
2023-03-17T08:57:24.744Z,101359.25
2023-03-17T09:00:28.322Z,101340.00
2023-03-17T09:03:33.163Z,101352.31
2023-03-17T09:06:36.112Z,101353.00
2023-03-17T09:09:39.494Z,101342.31
2023-03-17T09:12:42.930Z,101346.00
2023-03-17T09:15:46.207Z,101348.59
2023-03-17T09:18:48.981Z,101349.34
2023-03-17T09:21:51.971Z,101356.91
2023-03-17T09:24:54.613Z,101342.00
2023-03-17T09:27:57.187Z,101317.63
2023-03-17T09:31:03.864Z,101339.25
2023-03-17T09:34:06.493Z,101350.22
2023-03-17T09:37:09.861Z,101330.75
2023-03-17T09:40:17.192Z,101336.81
2023-03-17T09:43:39.747Z,101339.50
2023-03-17T09:47:28.381Z,101343.72
2023-03-17T09:51:01.746Z,101334.91
2023-03-17T09:54:18.454Z,101325.66
2023-03-17T09:57:33.218Z,101312.47
2023-03-17T10:00:35.734Z,101299.13
2023-03-17T10:03:38.983Z,101308.47
2023-03-17T10:06:49.671Z,101310.81
2023-03-17T10:10:05.421Z,101308.31
2023-03-17T10:13:28.981Z,101316.22
2023-03-17T10:16:41.547Z,101310.25
2023-03-17T10:20:12.945Z,101308.13
2023-03-17T10:23:19.988Z,101287.25
2023-03-17T10:26:42.614Z,101293.09
2023-03-17T10:29:48.238Z,101282.34
2023-03-17T10:32:54.124Z,101289.00
2023-03-17T10:35:56.704Z,101262.94
2023-03-17T10:39:00.001Z,101273.63
2023-03-17T10:42:29.412Z,101278.38
2023-03-17T10:45:33.683Z,101283.00
2023-03-17T10:48:38.107Z,101275.06
2023-03-17T10:51:40.746Z,101258.06
2023-03-17T10:54:48.043Z,101276.09
2023-03-17T10:58:06.062Z,101268.00
2023-03-17T11:01:17.912Z,101253.19
2023-03-17T11:04:39.336Z,101257.81
2023-03-17T11:07:41.738Z,101266.72
2023-03-17T11:10:44.963Z,101255.22
2023-03-17T11:13:48.250Z,101252.09
2023-03-17T11:16:50.861Z,101244.97
2023-03-17T11:19:58.025Z,101231.44
2023-03-17T11:23:17.950Z,101233.34
2023-03-17T11:26:51.644Z,101236.00
2023-03-17T11:30:17.076Z,101231.38
2023-03-17T11:33:36.250Z,101225.47
2023-03-17T11:36:38.690Z,101222.63
2023-03-17T11:40:00.423Z,101219.69
2023-03-17T11:43:11.619Z,101210.56
2023-03-17T11:46:28.963Z,101201.66
2023-03-17T11:49:39.301Z,101197.19
2023-03-17T11:52:52.506Z,101190.66
2023-03-17T11:56:01.566Z,101169.72
2023-03-17T11:59:11.877Z,101163.41
2023-03-17T12:02:37.904Z,101172.47
2023-03-17T12:05:41.231Z,101163.25
2023-03-17T12:09:20.437Z,101144.56
2023-03-17T12:12:30.256Z,101139.13
2023-03-17T12:15:40.168Z,101129.84
2023-03-17T12:19:11.589Z,101142.75
2023-03-17T12:22:32.904Z,101152.41
2023-03-17T12:25:56.722Z,101128.91
2023-03-17T12:29:02.532Z,101137.38
2023-03-17T12:32:12.552Z,101123.38
2023-03-17T12:35:17.110Z,101128.22
2023-03-17T12:38:43.329Z,101116.28
2023-03-17T12:42:06.907Z,101125.03
2023-03-17T12:45:35.469Z,101116.53
2023-03-17T12:49:05.864Z,101112.66
2023-03-17T12:52:55.919Z,101111.78
2023-03-17T12:56:19.329Z,101099.06
2023-03-17T12:59:25.110Z,101092.31
2023-03-17T13:02:28.354Z,101098.28
2023-03-17T13:05:32.980Z,101085.81
2023-03-17T13:08:44.980Z,101086.84
2023-03-17T13:11:48.348Z,101070.94
2023-03-17T13:14:51.981Z,101086.06
2023-03-17T13:18:17.711Z,101083.03
2023-03-17T13:21:25.062Z,101083.28
2023-03-17T13:24:47.231Z,101083.41
2023-03-17T13:27:50.128Z,101068.03
2023-03-17T13:31:10.190Z,101085.78
2023-03-17T13:34:16.299Z,101078.25
2023-03-17T13:37:30.456Z,101063.16
2023-03-17T13:40:49.934Z,101076.38
2023-03-17T13:44:26.728Z,101075.88
2023-03-17T13:47:44.392Z,101068.03
2023-03-17T13:50:46.948Z,101075.56
2023-03-17T13:54:06.819Z,101065.38
2023-03-17T13:57:26.559Z,101053.75
2023-03-17T14:00:33.564Z,101062.47
2023-03-17T14:03:51.277Z,101043.00
2023-03-17T14:06:58.648Z,101055.69
2023-03-17T14:10:05.093Z,101064.50
2023-03-17T14:13:28.424Z,101048.31
2023-03-17T14:16:35.904Z,101042.38
2023-03-17T14:19:41.625Z,101031.00
2023-03-17T14:22:47.386Z,101029.69
2023-03-17T14:25:51.200Z,101008.13
2023-03-17T14:28:54.163Z,101007.88
2023-03-17T14:32:06.692Z,101023.84
2023-03-17T14:35:13.526Z,101013.81
2023-03-17T14:38:27.641Z,101016.72
2023-03-17T14:41:32.230Z,101008.91
2023-03-17T14:44:43.218Z,101006.91
2023-03-17T14:47:46.002Z,100996.59
2023-03-17T14:51:29.114Z,100992.75
2023-03-17T14:54:35.933Z,100978.53
2023-03-17T14:57:38.744Z,100974.88
2023-03-17T15:00:46.442Z,100981.56
2023-03-17T15:04:06.598Z,100976.09
2023-03-17T15:07:31.394Z,100951.41
2023-03-17T15:10:42.541Z,100965.25
2023-03-17T15:13:45.802Z,100947.13
2023-03-17T15:16:52.400Z,100958.69
2023-03-17T15:19:59.730Z,100957.19
2023-03-17T15:23:17.095Z,100938.03
2023-03-17T15:26:30.239Z,100951.94
2023-03-17T15:29:33.400Z,100948.72
2023-03-17T15:32:36.181Z,100954.19
2023-03-17T15:35:38.602Z,100931.34
2023-03-17T15:38:41.275Z,100949.41
2023-03-17T15:41:43.841Z,100928.34
2023-03-17T15:44:46.671Z,100939.16
2023-03-17T15:47:49.238Z,100918.25
2023-03-17T15:50:53.065Z,100943.38
2023-03-17T15:53:55.607Z,100931.72
2023-03-17T15:56:58.068Z,100929.69
2023-03-17T16:00:00.477Z,100935.09
2023-03-17T16:03:18.609Z,100923.44
2023-03-17T16:06:22.546Z,100921.84
2023-03-17T16:09:25.060Z,100931.38
2023-03-17T16:12:27.729Z,100933.06
2023-03-17T16:15:33.929Z,100938.69
2023-03-17T16:18:38.302Z,100932.28
2023-03-17T16:21:41.436Z,100930.63
2023-03-17T16:24:43.869Z,100930.25
2023-03-17T16:27:48.337Z,100925.34
2023-03-17T16:30:52.811Z,100931.72
2023-03-17T16:33:56.541Z,100926.84
2023-03-17T16:36:58.998Z,100952.53
2023-03-17T16:40:01.671Z,100937.28
2023-03-17T16:43:12.837Z,100928.16
2023-03-17T16:46:20.328Z,100934.91
2023-03-17T16:49:23.088Z,100938.78
2023-03-17T16:52:28.468Z,100948.31
2023-03-17T16:55:31.052Z,100930.19
2023-03-17T16:58:36.911Z,100929.66
2023-03-17T17:01:39.588Z,100943.22
2023-03-17T17:04:42.090Z,100950.72
2023-03-17T17:07:44.887Z,100953.34
2023-03-17T17:10:47.531Z,100951.31
2023-03-17T17:13:51.536Z,100933.44
2023-03-17T17:16:54.075Z,100954.50
2023-03-17T17:19:56.842Z,100948.25
2023-03-17T17:23:01.343Z,100935.97
2023-03-17T17:26:03.830Z,100963.56
2023-03-17T17:29:06.557Z,100957.81
2023-03-17T17:32:09.201Z,100945.38
2023-03-17T17:35:15.510Z,100944.47
2023-03-17T17:38:26.318Z,100955.19
2023-03-17T17:41:31.473Z,100946.69
2023-03-17T17:44:36.974Z,100955.44
2023-03-17T17:47:40.025Z,100956.47
2023-03-17T17:50:43.579Z,100954.44
2023-03-17T17:53:46.328Z,100949.63
2023-03-17T17:56:49.034Z,100942.44
2023-03-17T17:59:52.015Z,100952.91
2023-03-17T18:02:54.465Z,100949.59
2023-03-17T18:05:57.790Z,100952.50
2023-03-17T18:09:00.968Z,100929.03
2023-03-17T18:12:04.753Z,100951.03
2023-03-17T18:15:08.089Z,100943.28
2023-03-17T18:18:10.954Z,100958.16
2023-03-17T18:21:14.327Z,100961.41
2023-03-17T18:24:17.416Z,100949.97
2023-03-17T18:27:20.281Z,100949.03
2023-03-17T18:30:28.921Z,100940.00
2023-03-17T18:33:32.411Z,100957.75
2023-03-17T18:36:35.778Z,100953.28
2023-03-17T18:39:41.006Z,100948.94
2023-03-17T18:42:44.149Z,100954.47
2023-03-17T18:45:46.937Z,100965.59
2023-03-17T18:48:49.814Z,100948.66
2023-03-17T18:51:53.264Z,100952.84
2023-03-17T18:54:56.042Z,100961.25
2023-03-17T18:57:58.774Z,100964.47
2023-03-17T19:01:02.462Z,100960.09
2023-03-17T19:04:05.866Z,100948.16
2023-03-17T19:07:08.756Z,100957.19
2023-03-17T19:10:14.174Z,100946.38
2023-03-17T19:13:17.015Z,100941.72
2023-03-17T19:16:19.714Z,100958.19
2023-03-17T19:19:23.338Z,100953.63
2023-03-17T19:22:27.777Z,100956.72
2023-03-17T19:25:31.669Z,100961.38
2023-03-17T19:28:35.696Z,100950.22
2023-03-17T19:31:41.495Z,100951.31
2023-03-17T19:34:44.409Z,100963.56
2023-03-17T19:37:46.923Z,100945.09
2023-03-17T19:40:49.995Z,100953.22
2023-03-17T19:43:52.740Z,100950.22
2023-03-17T19:46:55.591Z,100961.47
2023-03-17T19:49:58.079Z,100948.03
2023-03-17T19:53:01.190Z,100946.13
2023-03-17T19:56:04.357Z,100940.13
2023-03-17T19:59:08.956Z,100932.19
2023-03-17T20:02:16.869Z,100919.84
2023-03-17T20:05:19.810Z,100929.53
2023-03-17T20:08:22.749Z,100933.09
2023-03-17T20:11:25.777Z,100932.38
2023-03-17T20:14:28.623Z,100932.34
2023-03-17T20:17:31.460Z,100938.22
2023-03-17T20:20:35.139Z,100928.69
2023-03-17T20:23:38.254Z,100922.88
2023-03-17T20:26:43.462Z,100929.56
2023-03-17T20:29:46.568Z,100931.78
2023-03-17T20:32:49.472Z,100926.38
2023-03-17T20:35:52.983Z,100940.72
2023-03-17T20:38:55.828Z,100945.78
2023-03-17T20:41:58.753Z,100927.50
2023-03-17T20:45:03.567Z,100942.38
2023-03-17T20:48:09.373Z,100918.44
2023-03-17T20:51:16.467Z,100927.66
2023-03-17T20:54:18.933Z,100926.81
2023-03-17T20:57:21.718Z,100933.31
2023-03-17T21:00:25.133Z,100917.59
2023-03-17T21:03:27.929Z,100921.75
2023-03-17T21:06:31.639Z,100915.31
2023-03-17T21:09:34.821Z,100928.28
2023-03-17T21:12:37.413Z,100912.13
2023-03-17T21:15:41.195Z,100917.53
2023-03-17T21:18:43.901Z,100920.72
2023-03-17T21:21:46.661Z,100904.59
2023-03-17T21:24:49.772Z,100913.81
2023-03-17T21:27:52.821Z,100907.75
2023-03-17T21:30:55.619Z,100913.81
2023-03-17T21:33:58.432Z,100920.22
2023-03-17T21:37:01.529Z,100897.13
2023-03-17T21:40:08.210Z,100891.47
2023-03-17T21:43:10.890Z,100911.00
2023-03-17T21:46:14.448Z,100901.69
2023-03-17T21:49:18.778Z,100896.63
2023-03-17T21:52:21.743Z,100909.75
2023-03-17T21:55:24.273Z,100904.50
2023-03-17T21:58:26.837Z,100913.81
2023-03-17T22:01:29.372Z,100892.28
2023-03-17T22:04:31.903Z,100913.22
2023-03-17T22:07:34.551Z,100913.06
2023-03-17T22:10:39.346Z,100924.66
2023-03-17T22:13:42.999Z,100914.69
2023-03-17T22:16:46.602Z,100908.47
2023-03-17T22:19:49.499Z,100929.69
2023-03-17T22:22:52.105Z,100929.41
2023-03-17T22:25:56.400Z,100926.44
2023-03-17T22:28:59.756Z,100922.56
2023-03-17T22:32:02.659Z,100907.69
2023-03-17T22:35:05.548Z,100905.41
2023-03-17T22:38:08.829Z,100909.19
2023-03-17T22:41:14.022Z,100917.47
2023-03-17T22:44:17.230Z,100919.78
2023-03-17T22:47:19.716Z,100916.13
2023-03-17T22:50:23.301Z,100890.47
2023-03-17T22:53:26.169Z,100895.88
2023-03-17T22:56:28.822Z,100900.75
2023-03-17T22:59:31.301Z,100913.72
2023-03-17T23:02:34.582Z,100883.63
2023-03-17T23:05:37.608Z,100906.97
2023-03-17T23:08:42.869Z,100897.25
2023-03-17T23:11:45.503Z,100894.16
2023-03-17T23:14:48.065Z,100890.63
2023-03-17T23:17:50.796Z,100906.84
2023-03-17T23:20:53.478Z,100898.06
2023-03-17T23:23:56.193Z,100893.63
2023-03-17T23:26:58.682Z,100879.47
2023-03-17T23:30:01.346Z,100904.53
2023-03-17T23:33:07.635Z,100916.44
2023-03-17T23:36:10.150Z,100900.38
2023-03-17T23:39:13.501Z,100901.84
2023-03-17T23:42:17.359Z,100907.94
2023-03-17T23:45:20.300Z,100894.84
2023-03-17T23:48:22.699Z,100884.97
2023-03-17T23:51:25.126Z,100894.16
2023-03-17T23:54:28.044Z,100882.94
2023-03-17T23:57:30.508Z,100886.19
